sensor_id;sensor_type;location;lat;lon;timestamp;P1;durP1;ratioP1;P2;durP2;ratioP2
20621;SDS011;10470;42.670;23.354;2023-01-04T00:01:49;15.27;;;9.67;;
20621;SDS011;10470;42.670;23.354;2023-01-04T00:04:35;15.77;;;9.90;;
20621;SDS011;10470;42.670;23.354;2023-01-04T00:07:20;13.60;;;9.87;;
20621;SDS011;10470;42.670;23.354;2023-01-04T00:10:06;15.33;;;9.97;;
20621;SDS011;10470;42.670;23.354;2023-01-04T00:12:52;17.00;;;10.50;;
20621;SDS011;10470;42.670;23.354;2023-01-04T00:15:37;16.00;;;10.90;;
20621;SDS011;10470;42.670;23.354;2023-01-04T00:18:22;15.53;;;10.10;;
20621;SDS011;10470;42.670;23.354;2023-01-04T00:23:56;16.50;;;10.23;;
20621;SDS011;10470;42.670;23.354;2023-01-04T00:26:40;14.47;;;9.93;;
20621;SDS011;10470;42.670;23.354;2023-01-04T00:29:26;13.93;;;8.80;;
20621;SDS011;10470;42.670;23.354;2023-01-04T00:32:12;14.83;;;9.87;;
20621;SDS011;10470;42.670;23.354;2023-01-04T00:34:57;13.67;;;9.03;;
20621;SDS011;10470;42.670;23.354;2023-01-04T00:37:42;10.37;;;8.00;;
20621;SDS011;10470;42.670;23.354;2023-01-04T00:40:28;14.70;;;9.80;;
20621;SDS011;10470;42.670;23.354;2023-01-04T00:43:13;11.20;;;8.43;;
20621;SDS011;10470;42.670;23.354;2023-01-04T00:45:59;13.07;;;9.00;;
20621;SDS011;10470;42.670;23.354;2023-01-04T00:48:47;12.80;;;9.47;;
20621;SDS011;10470;42.670;23.354;2023-01-04T00:51:33;14.60;;;9.70;;
20621;SDS011;10470;42.670;23.354;2023-01-04T00:54:19;12.27;;;7.57;;
20621;SDS011;10470;42.670;23.354;2023-01-04T00:57:05;13.37;;;9.00;;
20621;SDS011;10470;42.670;23.354;2023-01-04T00:59:51;12.93;;;9.03;;
20621;SDS011;10470;42.670;23.354;2023-01-04T01:02:37;14.20;;;9.63;;
20621;SDS011;10470;42.670;23.354;2023-01-04T01:05:22;13.17;;;9.63;;
20621;SDS011;10470;42.670;23.354;2023-01-04T01:08:08;15.97;;;10.03;;
20621;SDS011;10470;42.670;23.354;2023-01-04T01:11:10;14.57;;;9.70;;
20621;SDS011;10470;42.670;23.354;2023-01-04T01:13:56;11.37;;;9.10;;
20621;SDS011;10470;42.670;23.354;2023-01-04T01:16:42;13.00;;;9.03;;
20621;SDS011;10470;42.670;23.354;2023-01-04T01:19:28;12.60;;;9.30;;
20621;SDS011;10470;42.670;23.354;2023-01-04T01:22:14;16.00;;;10.83;;
20621;SDS011;10470;42.670;23.354;2023-01-04T01:24:59;14.93;;;10.30;;
20621;SDS011;10470;42.670;23.354;2023-01-04T01:27:35;16.40;;;10.23;;
20621;SDS011;10470;42.670;23.354;2023-01-04T01:30:20;12.53;;;9.47;;
20621;SDS011;10470;42.670;23.354;2023-01-04T01:33:06;14.43;;;10.13;;
20621;SDS011;10470;42.670;23.354;2023-01-04T01:35:52;14.93;;;10.10;;
20621;SDS011;10470;42.670;23.354;2023-01-04T01:38:38;14.60;;;10.60;;
20621;SDS011;10470;42.670;23.354;2023-01-04T01:41:26;14.87;;;10.10;;
20621;SDS011;10470;42.670;23.354;2023-01-04T01:47:32;16.27;;;10.30;;
20621;SDS011;10470;42.670;23.354;2023-01-04T01:50:24;13.90;;;10.50;;
20621;SDS011;10470;42.670;23.354;2023-01-04T01:53:13;16.43;;;10.60;;
20621;SDS011;10470;42.670;23.354;2023-01-04T01:55:59;13.27;;;10.10;;
20621;SDS011;10470;42.670;23.354;2023-01-04T01:58:46;14.03;;;9.90;;
20621;SDS011;10470;42.670;23.354;2023-01-04T02:01:36;14.93;;;10.37;;
20621;SDS011;10470;42.670;23.354;2023-01-04T02:04:11;19.07;;;10.20;;
20621;SDS011;10470;42.670;23.354;2023-01-04T02:06:59;15.33;;;10.53;;
20621;SDS011;10470;42.670;23.354;2023-01-04T02:09:45;16.13;;;10.37;;
20621;SDS011;10470;42.670;23.354;2023-01-04T02:12:31;18.90;;;11.00;;
20621;SDS011;10470;42.670;23.354;2023-01-04T02:15:17;15.90;;;11.40;;
20621;SDS011;10470;42.670;23.354;2023-01-04T02:18:11;15.57;;;11.10;;
20621;SDS011;10470;42.670;23.354;2023-01-04T02:21:04;17.57;;;11.07;;
20621;SDS011;10470;42.670;23.354;2023-01-04T02:24:06;18.57;;;11.23;;
20621;SDS011;10470;42.670;23.354;2023-01-04T02:27:30;15.67;;;10.27;;
20621;SDS011;10470;42.670;23.354;2023-01-04T02:36:54;16.70;;;11.47;;
20621;SDS011;10470;42.670;23.354;2023-01-04T02:43:06;18.03;;;11.60;;
20621;SDS011;10470;42.670;23.354;2023-01-04T02:46:21;19.83;;;11.77;;
20621;SDS011;10470;42.670;23.354;2023-01-04T02:49:13;17.53;;;11.63;;
20621;SDS011;10470;42.670;23.354;2023-01-04T02:52:17;18.40;;;11.93;;
20621;SDS011;10470;42.670;23.354;2023-01-04T02:55:07;21.70;;;12.73;;
20621;SDS011;10470;42.670;23.354;2023-01-04T02:58:06;20.77;;;12.90;;
20621;SDS011;10470;42.670;23.354;2023-01-04T03:04:59;20.53;;;12.90;;
20621;SDS011;10470;42.670;23.354;2023-01-04T03:08:23;21.33;;;12.97;;
20621;SDS011;10470;42.670;23.354;2023-01-04T03:11:15;18.50;;;12.43;;
20621;SDS011;10470;42.670;23.354;2023-01-04T03:14:20;20.33;;;13.00;;
20621;SDS011;10470;42.670;23.354;2023-01-04T03:17:09;19.13;;;13.03;;
20621;SDS011;10470;42.670;23.354;2023-01-04T03:19:58;21.33;;;12.93;;
20621;SDS011;10470;42.670;23.354;2023-01-04T03:23:06;20.53;;;13.37;;
20621;SDS011;10470;42.670;23.354;2023-01-04T03:26:12;22.40;;;14.00;;
20621;SDS011;10470;42.670;23.354;2023-01-04T03:29:22;19.27;;;12.23;;
20621;SDS011;10470;42.670;23.354;2023-01-04T03:32:47;22.40;;;13.23;;
20621;SDS011;10470;42.670;23.354;2023-01-04T03:39:14;22.57;;;12.67;;
20621;SDS011;10470;42.670;23.354;2023-01-04T03:45:43;20.27;;;13.27;;
20621;SDS011;10470;42.670;23.354;2023-01-04T03:48:56;23.03;;;13.07;;
20621;SDS011;10470;42.670;23.354;2023-01-04T03:51:48;17.10;;;10.80;;
20621;SDS011;10470;42.670;23.354;2023-01-04T03:54:38;20.53;;;12.77;;
20621;SDS011;10470;42.670;23.354;2023-01-04T03:57:27;20.33;;;12.73;;
20621;SDS011;10470;42.670;23.354;2023-01-04T03:59:59;21.97;;;12.57;;
20621;SDS011;10470;42.670;23.354;2023-01-04T04:02:49;21.10;;;11.80;;
20621;SDS011;10470;42.670;23.354;2023-01-04T04:05:36;17.93;;;11.87;;
20621;SDS011;10470;42.670;23.354;2023-01-04T04:08:42;16.53;;;10.07;;
20621;SDS011;10470;42.670;23.354;2023-01-04T04:11:28;18.93;;;11.73;;
20621;SDS011;10470;42.670;23.354;2023-01-04T04:14:16;20.47;;;11.90;;
20621;SDS011;10470;42.670;23.354;2023-01-04T04:17:02;20.37;;;12.63;;
20621;SDS011;10470;42.670;23.354;2023-01-04T04:19:47;19.40;;;12.20;;
20621;SDS011;10470;42.670;23.354;2023-01-04T04:22:33;20.20;;;12.43;;
20621;SDS011;10470;42.670;23.354;2023-01-04T04:25:18;20.00;;;11.90;;
20621;SDS011;10470;42.670;23.354;2023-01-04T04:28:04;19.83;;;12.20;;
20621;SDS011;10470;42.670;23.354;2023-01-04T04:30:50;19.50;;;12.63;;
20621;SDS011;10470;42.670;23.354;2023-01-04T04:33:36;17.67;;;11.93;;
20621;SDS011;10470;42.670;23.354;2023-01-04T04:36:21;19.10;;;12.13;;
20621;SDS011;10470;42.670;23.354;2023-01-04T04:39:07;21.03;;;10.63;;
20621;SDS011;10470;42.670;23.354;2023-01-04T04:41:52;17.20;;;11.37;;
20621;SDS011;10470;42.670;23.354;2023-01-04T04:44:38;20.00;;;12.53;;
20621;SDS011;10470;42.670;23.354;2023-01-04T04:47:23;19.00;;;12.40;;
20621;SDS011;10470;42.670;23.354;2023-01-04T04:50:08;20.37;;;11.53;;
20621;SDS011;10470;42.670;23.354;2023-01-04T04:52:54;18.20;;;11.80;;
20621;SDS011;10470;42.670;23.354;2023-01-04T04:55:23;16.37;;;10.70;;
20621;SDS011;10470;42.670;23.354;2023-01-04T04:58:08;31.07;;;17.47;;
20621;SDS011;10470;42.670;23.354;2023-01-04T05:00:54;22.83;;;13.00;;
20621;SDS011;10470;42.670;23.354;2023-01-04T05:03:39;20.63;;;13.30;;
20621;SDS011;10470;42.670;23.354;2023-01-04T05:06:25;20.50;;;13.30;;
20621;SDS011;10470;42.670;23.354;2023-01-04T05:09:11;20.67;;;13.83;;
20621;SDS011;10470;42.670;23.354;2023-01-04T05:11:57;22.20;;;13.37;;
20621;SDS011;10470;42.670;23.354;2023-01-04T05:15:01;22.90;;;14.43;;
20621;SDS011;10470;42.670;23.354;2023-01-04T05:17:47;18.17;;;12.43;;
20621;SDS011;10470;42.670;23.354;2023-01-04T05:20:32;22.40;;;13.93;;
20621;SDS011;10470;42.670;23.354;2023-01-04T05:23:19;21.73;;;13.73;;
20621;SDS011;10470;42.670;23.354;2023-01-04T05:25:59;21.63;;;13.73;;
20621;SDS011;10470;42.670;23.354;2023-01-04T05:28:46;20.57;;;13.07;;
20621;SDS011;10470;42.670;23.354;2023-01-04T05:31:31;18.13;;;9.33;;
20621;SDS011;10470;42.670;23.354;2023-01-04T05:34:17;21.63;;;13.37;;
20621;SDS011;10470;42.670;23.354;2023-01-04T05:37:02;20.73;;;13.33;;
20621;SDS011;10470;42.670;23.354;2023-01-04T05:39:48;23.70;;;13.37;;
20621;SDS011;10470;42.670;23.354;2023-01-04T05:42:33;22.03;;;13.13;;
20621;SDS011;10470;42.670;23.354;2023-01-04T05:45:19;22.93;;;12.63;;
20621;SDS011;10470;42.670;23.354;2023-01-04T05:48:05;17.73;;;11.37;;
20621;SDS011;10470;42.670;23.354;2023-01-04T05:50:51;22.63;;;13.87;;
20621;SDS011;10470;42.670;23.354;2023-01-04T05:53:37;18.93;;;12.83;;
20621;SDS011;10470;42.670;23.354;2023-01-04T05:56:22;22.23;;;14.10;;
20621;SDS011;10470;42.670;23.354;2023-01-04T05:59:08;23.87;;;13.63;;
20621;SDS011;10470;42.670;23.354;2023-01-04T06:01:53;21.33;;;13.17;;
20621;SDS011;10470;42.670;23.354;2023-01-04T06:04:39;19.70;;;13.17;;
20621;SDS011;10470;42.670;23.354;2023-01-04T06:07:25;19.90;;;12.20;;
20621;SDS011;10470;42.670;23.354;2023-01-04T06:10:14;21.90;;;13.80;;
20621;SDS011;10470;42.670;23.354;2023-01-04T06:12:59;19.13;;;10.97;;
20621;SDS011;10470;42.670;23.354;2023-01-04T06:15:44;22.83;;;13.43;;
20621;SDS011;10470;42.670;23.354;2023-01-04T06:18:30;20.23;;;13.03;;
20621;SDS011;10470;42.670;23.354;2023-01-04T06:20:59;22.37;;;14.10;;
20621;SDS011;10470;42.670;23.354;2023-01-04T06:23:45;23.40;;;13.30;;
20621;SDS011;10470;42.670;23.354;2023-01-04T06:26:30;23.90;;;13.77;;
20621;SDS011;10470;42.670;23.354;2023-01-04T06:29:15;20.93;;;12.77;;
20621;SDS011;10470;42.670;23.354;2023-01-04T06:32:01;22.73;;;13.50;;
20621;SDS011;10470;42.670;23.354;2023-01-04T06:34:47;22.40;;;13.00;;
20621;SDS011;10470;42.670;23.354;2023-01-04T06:37:32;27.00;;;13.93;;
20621;SDS011;10470;42.670;23.354;2023-01-04T06:40:19;21.97;;;12.43;;
20621;SDS011;10470;42.670;23.354;2023-01-04T06:43:05;20.30;;;12.47;;
20621;SDS011;10470;42.670;23.354;2023-01-04T06:45:50;23.00;;;13.20;;
20621;SDS011;10470;42.670;23.354;2023-01-04T06:48:35;18.03;;;10.73;;
20621;SDS011;10470;42.670;23.354;2023-01-04T06:51:21;23.80;;;12.63;;
20621;SDS011;10470;42.670;23.354;2023-01-04T06:54:08;20.23;;;11.80;;
20621;SDS011;10470;42.670;23.354;2023-01-04T06:56:55;20.27;;;11.80;;
20621;SDS011;10470;42.670;23.354;2023-01-04T06:59:41;22.03;;;12.70;;
20621;SDS011;10470;42.670;23.354;2023-01-04T07:02:26;20.53;;;11.90;;
20621;SDS011;10470;42.670;23.354;2023-01-04T07:05:11;24.33;;;13.00;;
20621;SDS011;10470;42.670;23.354;2023-01-04T07:08:03;20.57;;;11.77;;
20621;SDS011;10470;42.670;23.354;2023-01-04T07:10:49;21.20;;;12.07;;
20621;SDS011;10470;42.670;23.354;2023-01-04T07:13:35;20.73;;;12.27;;
20621;SDS011;10470;42.670;23.354;2023-01-04T07:16:04;19.00;;;12.27;;
20621;SDS011;10470;42.670;23.354;2023-01-04T07:18:50;18.60;;;11.57;;
20621;SDS011;10470;42.670;23.354;2023-01-04T07:21:35;22.40;;;11.83;;
20621;SDS011;10470;42.670;23.354;2023-01-04T07:24:20;20.10;;;11.97;;
20621;SDS011;10470;42.670;23.354;2023-01-04T07:27:06;21.30;;;12.97;;
20621;SDS011;10470;42.670;23.354;2023-01-04T07:29:51;21.23;;;12.80;;
20621;SDS011;10470;42.670;23.354;2023-01-04T07:32:37;18.60;;;10.90;;
20621;SDS011;10470;42.670;23.354;2023-01-04T07:35:22;22.07;;;13.10;;
20621;SDS011;10470;42.670;23.354;2023-01-04T07:38:08;20.67;;;12.00;;
20621;SDS011;10470;42.670;23.354;2023-01-04T07:40:53;19.60;;;11.87;;
20621;SDS011;10470;42.670;23.354;2023-01-04T07:43:39;20.50;;;12.13;;
20621;SDS011;10470;42.670;23.354;2023-01-04T07:46:24;16.37;;;10.87;;
20621;SDS011;10470;42.670;23.354;2023-01-04T07:49:12;20.97;;;11.67;;
20621;SDS011;10470;42.670;23.354;2023-01-04T07:52:00;19.50;;;11.67;;
20621;SDS011;10470;42.670;23.354;2023-01-04T07:54:45;19.67;;;12.60;;
20621;SDS011;10470;42.670;23.354;2023-01-04T07:57:31;20.97;;;11.83;;
20621;SDS011;10470;42.670;23.354;2023-01-04T08:00:16;22.20;;;12.53;;
20621;SDS011;10470;42.670;23.354;2023-01-04T08:03:02;19.93;;;12.37;;
20621;SDS011;10470;42.670;23.354;2023-01-04T08:05:47;23.67;;;12.83;;
20621;SDS011;10470;42.670;23.354;2023-01-04T08:08:33;21.00;;;12.40;;
20621;SDS011;10470;42.670;23.354;2023-01-04T08:14:14;21.43;;;13.17;;
20621;SDS011;10470;42.670;23.354;2023-01-04T08:16:59;21.17;;;12.50;;
20621;SDS011;10470;42.670;23.354;2023-01-04T08:19:45;23.77;;;13.83;;
20621;SDS011;10470;42.670;23.354;2023-01-04T08:22:30;21.63;;;12.80;;
20621;SDS011;10470;42.670;23.354;2023-01-04T08:25:16;19.57;;;12.43;;
20621;SDS011;10470;42.670;23.354;2023-01-04T08:28:01;22.87;;;12.73;;
20621;SDS011;10470;42.670;23.354;2023-01-04T08:30:47;18.90;;;11.27;;
20621;SDS011;10470;42.670;23.354;2023-01-04T08:33:33;21.07;;;11.83;;
20621;SDS011;10470;42.670;23.354;2023-01-04T08:36:23;21.87;;;13.20;;
20621;SDS011;10470;42.670;23.354;2023-01-04T08:39:10;19.07;;;11.60;;
20621;SDS011;10470;42.670;23.354;2023-01-04T08:41:40;21.17;;;13.10;;
20621;SDS011;10470;42.670;23.354;2023-01-04T08:44:34;20.30;;;12.50;;
20621;SDS011;10470;42.670;23.354;2023-01-04T08:47:20;20.47;;;12.70;;
20621;SDS011;10470;42.670;23.354;2023-01-04T08:50:06;22.50;;;12.77;;
20621;SDS011;10470;42.670;23.354;2023-01-04T08:52:51;21.20;;;12.90;;
20621;SDS011;10470;42.670;23.354;2023-01-04T08:55:37;23.63;;;12.73;;
20621;SDS011;10470;42.670;23.354;2023-01-04T08:58:22;20.57;;;12.87;;
20621;SDS011;10470;42.670;23.354;2023-01-04T09:01:09;22.97;;;13.50;;
20621;SDS011;10470;42.670;23.354;2023-01-04T09:03:55;22.77;;;14.10;;
20621;SDS011;10470;42.670;23.354;2023-01-04T09:06:40;23.07;;;12.93;;
20621;SDS011;10470;42.670;23.354;2023-01-04T09:09:26;25.27;;;15.23;;
20621;SDS011;10470;42.670;23.354;2023-01-04T09:12:14;22.90;;;13.93;;
20621;SDS011;10470;42.670;23.354;2023-01-04T09:14:59;20.73;;;13.10;;
20621;SDS011;10470;42.670;23.354;2023-01-04T09:17:44;20.10;;;12.77;;
20621;SDS011;10470;42.670;23.354;2023-01-04T09:20:30;18.33;;;12.23;;
20621;SDS011;10470;42.670;23.354;2023-01-04T09:23:15;14.20;;;7.87;;
20621;SDS011;10470;42.670;23.354;2023-01-04T09:26:08;21.03;;;12.73;;
20621;SDS011;10470;42.670;23.354;2023-01-04T09:28:55;19.30;;;11.03;;
20621;SDS011;10470;42.670;23.354;2023-01-04T09:31:41;23.70;;;13.77;;
20621;SDS011;10470;42.670;23.354;2023-01-04T09:34:26;20.60;;;13.60;;
20621;SDS011;10470;42.670;23.354;2023-01-04T09:37:12;20.57;;;12.37;;
20621;SDS011;10470;42.670;23.354;2023-01-04T09:39:57;21.63;;;13.67;;
20621;SDS011;10470;42.670;23.354;2023-01-04T09:42:43;19.00;;;12.73;;
20621;SDS011;10470;42.670;23.354;2023-01-04T09:45:29;20.87;;;13.47;;
20621;SDS011;10470;42.670;23.354;2023-01-04T09:48:17;18.80;;;11.33;;
20621;SDS011;10470;42.670;23.354;2023-01-04T09:51:10;16.03;;;9.87;;
20621;SDS011;10470;42.670;23.354;2023-01-04T09:54:01;19.27;;;12.27;;
20621;SDS011;10470;42.670;23.354;2023-01-04T09:57:01;18.87;;;12.57;;
20621;SDS011;10470;42.670;23.354;2023-01-04T09:59:49;18.77;;;12.23;;
20621;SDS011;10470;42.670;23.354;2023-01-04T10:02:42;17.23;;;10.03;;
20621;SDS011;10470;42.670;23.354;2023-01-04T10:05:30;17.30;;;11.40;;
20621;SDS011;10470;42.670;23.354;2023-01-04T10:08:17;16.30;;;10.23;;
20621;SDS011;10470;42.670;23.354;2023-01-04T10:14:08;19.67;;;12.03;;
20621;SDS011;10470;42.670;23.354;2023-01-04T10:20:29;19.33;;;11.67;;
20621;SDS011;10470;42.670;23.354;2023-01-04T10:23:26;17.17;;;10.63;;
20621;SDS011;10470;42.670;23.354;2023-01-04T10:26:15;17.80;;;10.40;;
20621;SDS011;10470;42.670;23.354;2023-01-04T10:31:53;18.80;;;12.00;;
20621;SDS011;10470;42.670;23.354;2023-01-04T10:34:45;17.60;;;11.60;;
20621;SDS011;10470;42.670;23.354;2023-01-04T10:37:32;18.23;;;10.63;;
20621;SDS011;10470;42.670;23.354;2023-01-04T10:40:20;16.50;;;10.77;;
20621;SDS011;10470;42.670;23.354;2023-01-04T10:48:50;15.40;;;9.63;;
20621;SDS011;10470;42.670;23.354;2023-01-04T10:52:11;19.17;;;11.80;;
20621;SDS011;10470;42.670;23.354;2023-01-04T10:55:13;19.97;;;12.73;;
20621;SDS011;10470;42.670;23.354;2023-01-04T10:58:22;17.83;;;11.10;;
20621;SDS011;10470;42.670;23.354;2023-01-04T11:01:16;17.40;;;10.00;;
20621;SDS011;10470;42.670;23.354;2023-01-04T11:10:02;18.30;;;10.97;;
20621;SDS011;10470;42.670;23.354;2023-01-04T11:12:49;18.87;;;11.23;;
20621;SDS011;10470;42.670;23.354;2023-01-04T11:15:34;16.93;;;11.00;;
20621;SDS011;10470;42.670;23.354;2023-01-04T11:18:20;19.13;;;11.50;;
20621;SDS011;10470;42.670;23.354;2023-01-04T11:21:07;18.50;;;11.80;;
20621;SDS011;10470;42.670;23.354;2023-01-04T11:24:00;17.57;;;11.50;;
20621;SDS011;10470;42.670;23.354;2023-01-04T11:26:49;16.13;;;10.17;;
20621;SDS011;10470;42.670;23.354;2023-01-04T11:29:55;25.70;;;11.43;;
20621;SDS011;10470;42.670;23.354;2023-01-04T11:32:48;15.23;;;9.60;;
20621;SDS011;10470;42.670;23.354;2023-01-04T11:35:39;15.93;;;10.10;;
20621;SDS011;10470;42.670;23.354;2023-01-04T11:38:28;16.80;;;10.93;;
20621;SDS011;10470;42.670;23.354;2023-01-04T11:41:15;19.23;;;10.83;;
20621;SDS011;10470;42.670;23.354;2023-01-04T11:44:05;21.50;;;11.40;;
20621;SDS011;10470;42.670;23.354;2023-01-04T11:50:17;14.90;;;9.77;;
20621;SDS011;10470;42.670;23.354;2023-01-04T11:53:23;19.30;;;10.97;;
20621;SDS011;10470;42.670;23.354;2023-01-04T11:56:20;15.30;;;9.77;;
20621;SDS011;10470;42.670;23.354;2023-01-04T12:05:00;17.03;;;10.53;;
20621;SDS011;10470;42.670;23.354;2023-01-04T12:07:45;17.73;;;10.67;;
20621;SDS011;10470;42.670;23.354;2023-01-04T12:10:31;14.23;;;10.00;;
20621;SDS011;10470;42.670;23.354;2023-01-04T12:13:17;15.57;;;10.50;;
20621;SDS011;10470;42.670;23.354;2023-01-04T12:19:22;15.77;;;9.63;;
20621;SDS011;10470;42.670;23.354;2023-01-04T12:22:42;13.53;;;9.43;;
20621;SDS011;10470;42.670;23.354;2023-01-04T12:34:37;13.63;;;10.03;;
20621;SDS011;10470;42.670;23.354;2023-01-04T12:43:37;16.80;;;10.33;;
20621;SDS011;10470;42.670;23.354;2023-01-04T12:55:03;17.50;;;10.90;;
20621;SDS011;10470;42.670;23.354;2023-01-04T13:01:20;15.27;;;9.90;;
20621;SDS011;10470;42.670;23.354;2023-01-04T13:04:45;17.97;;;10.37;;
20621;SDS011;10470;42.670;23.354;2023-01-04T13:07:28;18.20;;;11.23;;
20621;SDS011;10470;42.670;23.354;2023-01-04T13:13:21;15.33;;;9.77;;
20621;SDS011;10470;42.670;23.354;2023-01-04T13:16:26;16.60;;;10.07;;
20621;SDS011;10470;42.670;23.354;2023-01-04T13:19:21;17.80;;;11.10;;
20621;SDS011;10470;42.670;23.354;2023-01-04T13:22:23;15.53;;;10.73;;
20621;SDS011;10470;42.670;23.354;2023-01-04T13:25:12;18.47;;;10.23;;
20621;SDS011;10470;42.670;23.354;2023-01-04T13:27:59;17.67;;;10.40;;
20621;SDS011;10470;42.670;23.354;2023-01-04T13:30:46;18.77;;;12.00;;
20621;SDS011;10470;42.670;23.354;2023-01-04T13:33:31;20.40;;;11.40;;
20621;SDS011;10470;42.670;23.354;2023-01-04T13:36:17;19.23;;;12.20;;
20621;SDS011;10470;42.670;23.354;2023-01-04T13:39:05;18.10;;;11.10;;
20621;SDS011;10470;42.670;23.354;2023-01-04T13:41:51;18.73;;;11.93;;
20621;SDS011;10470;42.670;23.354;2023-01-04T13:47:59;16.93;;;11.33;;
20621;SDS011;10470;42.670;23.354;2023-01-04T13:50:58;19.30;;;12.37;;
20621;SDS011;10470;42.670;23.354;2023-01-04T13:53:53;24.20;;;14.13;;
20621;SDS011;10470;42.670;23.354;2023-01-04T13:56:40;19.70;;;12.37;;
20621;SDS011;10470;42.670;23.354;2023-01-04T13:59:25;20.43;;;12.50;;
20621;SDS011;10470;42.670;23.354;2023-01-04T14:02:13;18.30;;;11.87;;
20621;SDS011;10470;42.670;23.354;2023-01-04T14:04:53;17.47;;;11.00;;
20621;SDS011;10470;42.670;23.354;2023-01-04T14:07:40;20.10;;;11.70;;
20621;SDS011;10470;42.670;23.354;2023-01-04T14:10:26;18.77;;;12.47;;
20621;SDS011;10470;42.670;23.354;2023-01-04T14:13:13;18.50;;;11.43;;
20621;SDS011;10470;42.670;23.354;2023-01-04T14:16:05;21.03;;;11.80;;
20621;SDS011;10470;42.670;23.354;2023-01-04T14:18:56;23.83;;;12.93;;
20621;SDS011;10470;42.670;23.354;2023-01-04T14:21:42;17.57;;;10.23;;
20621;SDS011;10470;42.670;23.354;2023-01-04T14:24:30;17.70;;;10.73;;
20621;SDS011;10470;42.670;23.354;2023-01-04T14:33:14;19.03;;;12.40;;
20621;SDS011;10470;42.670;23.354;2023-01-04T14:38:58;22.30;;;12.47;;
20621;SDS011;10470;42.670;23.354;2023-01-04T14:41:40;21.43;;;11.00;;
20621;SDS011;10470;42.670;23.354;2023-01-04T14:44:27;19.17;;;11.10;;
20621;SDS011;10470;42.670;23.354;2023-01-04T14:47:14;18.77;;;11.20;;
20621;SDS011;10470;42.670;23.354;2023-01-04T14:50:00;19.30;;;11.70;;
20621;SDS011;10470;42.670;23.354;2023-01-04T14:52:52;22.67;;;12.17;;
20621;SDS011;10470;42.670;23.354;2023-01-04T14:55:38;20.90;;;12.10;;
20621;SDS011;10470;42.670;23.354;2023-01-04T14:58:24;19.03;;;10.80;;
20621;SDS011;10470;42.670;23.354;2023-01-04T15:01:10;19.67;;;12.07;;
20621;SDS011;10470;42.670;23.354;2023-01-04T15:03:56;21.10;;;12.97;;
20621;SDS011;10470;42.670;23.354;2023-01-04T15:06:45;21.23;;;12.67;;
20621;SDS011;10470;42.670;23.354;2023-01-04T15:09:33;21.87;;;13.07;;
20621;SDS011;10470;42.670;23.354;2023-01-04T15:12:11;26.07;;;13.33;;
20621;SDS011;10470;42.670;23.354;2023-01-04T15:14:56;22.30;;;12.77;;
20621;SDS011;10470;42.670;23.354;2023-01-04T15:17:42;22.77;;;13.20;;
20621;SDS011;10470;42.670;23.354;2023-01-04T15:20:27;21.90;;;13.23;;
20621;SDS011;10470;42.670;23.354;2023-01-04T15:23:13;20.27;;;12.80;;
20621;SDS011;10470;42.670;23.354;2023-01-04T15:25:59;20.50;;;12.60;;
20621;SDS011;10470;42.670;23.354;2023-01-04T15:28:47;21.80;;;13.03;;
20621;SDS011;10470;42.670;23.354;2023-01-04T15:31:32;22.73;;;12.53;;
20621;SDS011;10470;42.670;23.354;2023-01-04T15:34:18;20.60;;;12.40;;
20621;SDS011;10470;42.670;23.354;2023-01-04T15:37:03;22.50;;;13.10;;
20621;SDS011;10470;42.670;23.354;2023-01-04T15:39:49;31.10;;;17.13;;
20621;SDS011;10470;42.670;23.354;2023-01-04T15:42:35;25.73;;;15.30;;
20621;SDS011;10470;42.670;23.354;2023-01-04T15:45:40;27.87;;;14.77;;
20621;SDS011;10470;42.670;23.354;2023-01-04T15:48:25;29.47;;;14.50;;
20621;SDS011;10470;42.670;23.354;2023-01-04T15:51:11;27.53;;;13.73;;
20621;SDS011;10470;42.670;23.354;2023-01-04T15:53:56;25.60;;;15.03;;
20621;SDS011;10470;42.670;23.354;2023-01-04T15:56:41;26.87;;;13.77;;
20621;SDS011;10470;42.670;23.354;2023-01-04T15:59:27;25.50;;;15.07;;
20621;SDS011;10470;42.670;23.354;2023-01-04T16:02:13;26.83;;;15.03;;
20621;SDS011;10470;42.670;23.354;2023-01-04T16:04:58;28.57;;;16.17;;
20621;SDS011;10470;42.670;23.354;2023-01-04T16:07:43;29.10;;;16.07;;
20621;SDS011;10470;42.670;23.354;2023-01-04T16:10:29;30.70;;;15.33;;
20621;SDS011;10470;42.670;23.354;2023-01-04T16:13:14;29.63;;;15.43;;
20621;SDS011;10470;42.670;23.354;2023-01-04T16:16:00;26.33;;;15.93;;
20621;SDS011;10470;42.670;23.354;2023-01-04T16:18:46;27.97;;;15.93;;
20621;SDS011;10470;42.670;23.354;2023-01-04T16:21:33;29.93;;;16.03;;
20621;SDS011;10470;42.670;23.354;2023-01-04T16:24:19;29.30;;;15.60;;
20621;SDS011;10470;42.670;23.354;2023-01-04T16:27:04;31.00;;;16.83;;
20621;SDS011;10470;42.670;23.354;2023-01-04T16:29:50;27.23;;;16.27;;
20621;SDS011;10470;42.670;23.354;2023-01-04T16:32:39;32.30;;;16.87;;
20621;SDS011;10470;42.670;23.354;2023-01-04T16:35:25;33.07;;;17.47;;
20621;SDS011;10470;42.670;23.354;2023-01-04T16:37:55;30.23;;;17.77;;
20621;SDS011;10470;42.670;23.354;2023-01-04T16:40:42;28.50;;;15.30;;
20621;SDS011;10470;42.670;23.354;2023-01-04T16:43:28;27.30;;;15.83;;
20621;SDS011;10470;42.670;23.354;2023-01-04T16:49:13;33.70;;;17.10;;
20621;SDS011;10470;42.670;23.354;2023-01-04T16:52:00;29.57;;;16.20;;
20621;SDS011;10470;42.670;23.354;2023-01-04T16:54:46;30.60;;;17.03;;
20621;SDS011;10470;42.670;23.354;2023-01-04T16:57:32;29.63;;;16.47;;
20621;SDS011;10470;42.670;23.354;2023-01-04T17:00:18;29.17;;;16.67;;
20621;SDS011;10470;42.670;23.354;2023-01-04T17:03:03;32.10;;;17.47;;
20621;SDS011;10470;42.670;23.354;2023-01-04T17:05:49;35.03;;;17.43;;
20621;SDS011;10470;42.670;23.354;2023-01-04T17:08:28;29.77;;;16.83;;
20621;SDS011;10470;42.670;23.354;2023-01-04T17:11:15;32.10;;;16.83;;
20621;SDS011;10470;42.670;23.354;2023-01-04T17:14:02;29.50;;;16.37;;
20621;SDS011;10470;42.670;23.354;2023-01-04T17:16:49;29.30;;;17.17;;
20621;SDS011;10470;42.670;23.354;2023-01-04T17:19:35;30.73;;;16.97;;
20621;SDS011;10470;42.670;23.354;2023-01-04T17:22:20;30.77;;;17.67;;
20621;SDS011;10470;42.670;23.354;2023-01-04T17:25:06;30.43;;;17.33;;
20621;SDS011;10470;42.670;23.354;2023-01-04T17:27:51;30.57;;;17.87;;
20621;SDS011;10470;42.670;23.354;2023-01-04T17:30:37;29.90;;;17.33;;
20621;SDS011;10470;42.670;23.354;2023-01-04T17:33:23;29.70;;;17.67;;
20621;SDS011;10470;42.670;23.354;2023-01-04T17:36:10;33.77;;;18.97;;
20621;SDS011;10470;42.670;23.354;2023-01-04T17:38:58;37.83;;;22.60;;
20621;SDS011;10470;42.670;23.354;2023-01-04T17:41:47;34.37;;;20.00;;
20621;SDS011;10470;42.670;23.354;2023-01-04T17:44:32;35.07;;;18.87;;
20621;SDS011;10470;42.670;23.354;2023-01-04T17:47:18;33.87;;;18.93;;
20621;SDS011;10470;42.670;23.354;2023-01-04T17:50:03;34.00;;;18.90;;
20621;SDS011;10470;42.670;23.354;2023-01-04T17:52:49;34.87;;;18.57;;
20621;SDS011;10470;42.670;23.354;2023-01-04T17:55:35;34.07;;;18.63;;
20621;SDS011;10470;42.670;23.354;2023-01-04T17:58:20;34.03;;;18.67;;
20621;SDS011;10470;42.670;23.354;2023-01-04T18:01:10;34.63;;;18.23;;